Time;durP1;ratioP1;P1;durP2;ratioP2;P2;SDS_P1;SDS_P2;PMS_P1;PMS_P2;Temp;Humidity;BMP_temperature;BMP_pressure;BME280_temperature;BME280_humidity;BME280_pressure;Samples;Min_cycle;Max_cycle;Signal;HPM_P1;HPM_P2
2022/04/05 00:02:57;;;;;;;9.80;8.90;;;6.60;1.00;;;;;;6265925;28;20840;-57
2022/04/05 00:06:00;;;;;;;8.23;7.63;;;6.70;1.00;;;;;;6275776;28;20511;-56
2022/04/05 00:09:03;;;;;;;7.30;6.80;;;6.50;1.00;;;;;;6289152;28;20639;-57
2022/04/05 00:12:07;;;;;;;6.77;6.23;;;6.30;1.00;;;;;;6278004;28;20308;-55
2022/04/05 00:15:11;;;;;;;6.07;5.10;;;6.30;1.00;;;;;;6271074;28;20234;-56
2022/04/05 00:18:14;;;;;;;4.63;4.33;;;6.30;1.00;;;;;;6260882;28;20238;-56
2022/04/05 00:21:16;;;;;;;4.97;4.77;;;6.20;1.00;;;;;;6261004;28;20238;-55
2022/04/05 00:24:19;;;;;;;4.60;4.30;;;6.30;1.00;;;;;;6260371;28;20234;-55
2022/04/05 00:27:22;;;;;;;6.10;4.33;;;6.20;1.00;;;;;;6260181;28;20276;-55
2022/04/05 00:30:26;;;;;;;5.70;4.17;;;6.20;1.00;;;;;;6260375;28;20668;-55
2022/04/05 00:33:29;;;;;;;4.10;3.90;;;6.10;1.00;;;;;;6267902;28;20712;-56
2022/04/05 00:36:31;;;;;;;5.33;4.03;;;6.30;1.00;;;;;;6279883;28;20449;-57
2022/04/05 00:39:34;;;;;;;4.13;3.83;;;6.20;1.00;;;;;;6286277;28;20224;-53
2022/04/05 00:42:37;;;;;;;4.80;4.33;;;6.30;1.00;;;;;;6280005;28;20240;-55
2022/04/05 00:45:41;;;;;;;4.63;4.00;;;6.20;1.00;;;;;;6279854;28;20371;-55
2022/04/05 00:48:49;;;;;;;4.43;3.87;;;6.20;1.00;;;;;;6254978;28;20238;-55
2022/04/05 00:51:52;;;;;;;4.77;3.60;;;6.20;1.00;;;;;;6265978;28;20743;-55
2022/04/05 00:54:56;;;;;;;3.67;3.53;;;6.20;1.00;;;;;;6283403;28;20363;-56
2022/04/05 00:58:02;;;;;;;4.40;4.00;;;6.20;1.00;;;;;;6283406;28;20499;-56
2022/04/05 01:01:07;;;;;;;4.77;4.30;;;6.30;1.00;;;;;;6265099;28;20375;-56
2022/04/05 01:04:12;;;;;;;4.93;4.53;;;6.20;1.00;;;;;;6278244;28;20233;-55
2022/04/05 01:07:16;;;;;;;5.10;4.63;;;6.40;1.00;;;;;;6276630;28;20371;-55
2022/04/05 01:10:21;;;;;;;4.97;4.57;;;6.20;1.00;;;;;;6283993;28;20638;-55
2022/04/05 01:13:24;;;;;;;6.13;5.20;;;6.20;1.00;;;;;;6257652;28;20544;-55
2022/04/05 01:16:29;;;;;;;6.27;4.90;;;6.20;1.00;;;;;;6268369;28;20271;-55
2022/04/05 01:19:32;;;;;;;4.83;4.50;;;6.50;1.00;;;;;;6270443;28;20363;-54
2022/04/05 01:22:35;;;;;;;5.13;4.73;;;6.40;1.00;;;;;;6282625;28;20730;-55
2022/04/05 01:25:43;;;;;;;5.10;4.60;;;6.40;1.00;;;;;;6266801;28;20230;-55
2022/04/05 01:28:45;;;;;;;5.33;4.40;;;6.40;1.00;;;;;;6268973;28;20707;-56
2022/04/05 01:31:49;;;;;;;4.57;4.07;;;6.40;1.00;;;;;;6283381;28;20312;-56
2022/04/05 01:34:52;;;;;;;4.20;3.93;;;6.50;1.00;;;;;;6275066;28;20230;-56
2022/04/05 01:37:55;;;;;;;7.17;4.57;;;6.30;1.00;;;;;;6282848;28;20236;-56
2022/04/05 01:41:01;;;;;;;7.17;4.47;;;6.40;1.00;;;;;;6274654;28;20626;-56
2022/04/05 01:44:05;;;;;;;4.73;4.30;;;6.40;1.00;;;;;;6282746;28;20253;-56
2022/04/05 01:47:10;;;;;;;3.83;3.60;;;6.30;1.00;;;;;;6265701;28;20361;-55
2022/04/05 01:50:12;;;;;;;6.83;3.93;;;6.30;1.00;;;;;;6251811;28;20238;-56
2022/04/05 01:53:15;;;;;;;9.43;3.70;;;6.30;1.00;;;;;;6282739;28;20327;-55
2022/04/05 01:56:21;;;;;;;6.20;3.70;;;6.30;1.00;;;;;;6283446;28;20568;-55
2022/04/05 01:59:26;;;;;;;6.47;3.67;;;6.50;1.00;;;;;;6272472;28;20241;-55
2022/04/05 02:02:29;;;;;;;4.60;3.37;;;6.40;1.00;;;;;;6254921;28;20329;-56
2022/04/05 02:05:32;;;;;;;5.40;3.60;;;6.40;1.00;;;;;;6265043;28;20225;-55
2022/04/05 02:08:35;;;;;;;3.83;3.53;;;6.40;1.00;;;;;;6276296;28;20310;-56
2022/04/05 02:11:39;;;;;;;6.07;3.33;;;6.40;1.00;;;;;;6274561;28;20312;-52
2022/04/05 02:14:42;;;;;;;5.27;3.80;;;6.10;1.00;;;;;;6281476;28;20244;-57
2022/04/05 02:17:45;;;;;;;6.87;3.30;;;6.50;1.00;;;;;;6263343;28;20312;-55
2022/04/05 02:20:49;;;;;;;6.07;4.03;;;6.50;1.00;;;;;;6263000;28;20545;-54
2022/04/05 02:23:52;;;;;;;8.27;3.80;;;6.20;1.00;;;;;;6262305;28;20267;-56
2022/04/05 02:26:56;;;;;;;7.40;4.50;;;6.30;1.00;;;;;;6262142;28;20233;-55
2022/04/05 02:29:58;;;;;;;4.50;3.50;;;6.20;1.00;;;;;;6261700;28;20649;-56
2022/04/05 02:33:01;;;;;;;4.27;3.87;;;6.20;1.00;;;;;;6268563;28;20308;-55
2022/04/05 02:36:04;;;;;;;4.80;3.70;;;6.40;1.00;;;;;;6279045;28;20233;-56
2022/04/05 02:39:07;;;;;;;3.83;3.53;;;6.40;1.00;;;;;;6292627;28;20472;-55
2022/04/05 02:42:11;;;;;;;9.43;3.73;;;6.20;1.00;;;;;;6273419;28;20237;-55
2022/04/05 02:45:14;;;;;;;4.40;3.50;;;6.30;1.00;;;;;;6269397;28;20389;-57
2022/04/05 02:48:17;;;;;;;7.40;3.50;;;6.20;1.00;;;;;;6286982;28;20729;-57
2022/04/05 02:51:20;;;;;;;5.30;4.10;;;6.20;1.00;;;;;;6287195;28;20765;-55
2022/04/05 02:54:22;;;;;;;7.67;3.60;;;6.20;1.00;;;;;;6273471;28;20280;-57
2022/04/05 02:57:26;;;;;;;5.40;3.37;;;6.30;1.00;;;;;;6265565;28;20256;-58
2022/04/05 03:00:29;;;;;;;7.03;4.00;;;6.10;1.00;;;;;;6287835;28;20244;-55
2022/04/05 03:03:32;;;;;;;3.97;3.50;;;6.30;1.00;;;;;;6271857;28;20233;-56
2022/04/05 03:06:35;;;;;;;8.33;3.70;;;6.10;1.00;;;;;;6275732;28;20329;-55
2022/04/05 03:09:38;;;;;;;3.83;3.50;;;6.20;1.00;;;;;;6267148;28;20241;-56
2022/04/05 03:12:42;;;;;;;4.17;3.60;;;6.20;1.00;;;;;;6285680;28;20517;-56
2022/04/05 03:15:44;;;;;;;5.13;3.50;;;6.30;1.00;;;;;;6285886;28;20240;-55
2022/04/05 03:18:47;;;;;;;4.03;3.83;;;6.20;1.00;;;;;;6269023;28;20711;-56
2022/04/05 03:21:50;;;;;;;5.33;3.80;;;6.20;1.00;;;;;;6272755;28;20795;-57
2022/04/05 03:24:53;;;;;;;7.40;3.83;;;6.40;1.00;;;;;;6284557;28;20348;-57
2022/04/05 03:28:00;;;;;;;4.00;3.60;;;6.30;1.00;;;;;;6283031;28;20316;-56
2022/04/05 03:31:02;;;;;;;7.23;3.93;;;6.10;1.00;;;;;;6264183;28;20230;-55
2022/04/05 03:34:05;;;;;;;7.70;3.57;;;6.20;1.00;;;;;;6275732;28;20328;-56
2022/04/05 03:37:09;;;;;;;7.40;3.97;;;6.10;1.00;;;;;;6291743;28;20739;-55
2022/04/05 03:40:13;;;;;;;8.43;3.90;;;6.10;1.00;;;;;;6273589;28;20344;-56
2022/04/05 03:43:17;;;;;;;7.53;4.13;;;6.10;1.00;;;;;;6286681;28;20311;-55
2022/04/05 03:46:20;;;;;;;4.80;3.97;;;6.00;1.00;;;;;;6283700;28;20245;-56
2022/04/05 03:49:23;;;;;;;7.67;4.07;;;6.20;1.00;;;;;;6279592;28;20619;-56
2022/04/05 03:52:26;;;;;;;7.87;4.10;;;6.10;1.00;;;;;;6290047;28;20362;-55
2022/04/05 03:55:29;;;;;;;6.53;4.40;;;6.10;1.00;;;;;;6286460;28;20375;-55
2022/04/05 03:58:33;;;;;;;4.40;4.00;;;5.80;1.00;;;;;;6283955;28;20332;-56
2022/04/05 04:01:36;;;;;;;8.23;4.40;;;6.00;1.00;;;;;;6290373;28;20325;-55
2022/04/05 04:04:39;;;;;;;11.17;4.67;;;5.90;1.00;;;;;;6287766;28;20237;-56
2022/04/05 04:07:43;;;;;;;6.47;4.03;;;6.00;1.00;;;;;;6285543;28;20310;-55
2022/04/05 04:10:48;;;;;;;5.23;4.27;;;6.20;1.00;;;;;;6284589;28;20222;-56
2022/04/05 04:13:52;;;;;;;5.20;4.03;;;5.90;1.00;;;;;;6264767;28;20706;-55
2022/04/05 04:16:55;;;;;;;7.60;4.33;;;6.20;1.00;;;;;;6272782;28;20236;-55
2022/04/05 04:19:58;;;;;;;8.60;5.03;;;6.20;1.00;;;;;;6257069;28;990845;-56
2022/04/05 04:23:00;;;;;;;10.27;4.53;;;6.00;1.00;;;;;;6285721;28;20801;-55
2022/04/05 04:26:04;;;;;;;6.87;4.40;;;6.00;1.00;;;;;;6282994;28;20236;-56
2022/04/05 04:29:08;;;;;;;6.07;4.00;;;5.90;1.00;;;;;;6285129;28;20237;-56
2022/04/05 04:32:11;;;;;;;5.97;4.20;;;6.00;1.00;;;;;;6284741;28;20299;-56
2022/04/05 04:35:14;;;;;;;9.07;4.20;;;5.90;1.00;;;;;;6282449;28;20606;-54
2022/04/05 04:38:17;;;;;;;9.40;4.00;;;5.80;1.00;;;;;;6287640;28;20380;-57
2022/04/05 04:41:21;;;;;;;4.37;4.00;;;6.10;1.00;;;;;;6276982;28;20246;-57
2022/04/05 04:44:26;;;;;;;6.37;4.20;;;6.10;1.00;;;;;;6274826;28;20777;-56
2022/04/05 04:47:29;;;;;;;7.37;3.83;;;6.10;1.00;;;;;;6290367;28;20609;-55
2022/04/05 04:50:31;;;;;;;8.13;4.23;;;5.90;1.00;;;;;;6282194;28;20236;-56
2022/04/05 04:53:34;;;;;;;6.23;4.20;;;5.90;1.00;;;;;;6284115;28;20382;-54
2022/04/05 04:56:37;;;;;;;9.53;4.20;;;6.00;1.00;;;;;;6290003;28;20257;-56
2022/04/05 04:59:41;;;;;;;9.37;4.07;;;5.80;1.00;;;;;;6294065;28;20245;-54
2022/04/05 05:02:44;;;;;;;4.80;4.40;;;5.80;1.00;;;;;;6279852;28;20229;-55
2022/04/05 05:05:47;;;;;;;10.40;4.47;;;6.10;1.00;;;;;;6271632;28;20368;-55
2022/04/05 05:08:50;;;;;;;6.47;4.97;;;5.90;1.00;;;;;;6280470;28;20463;-56
2022/04/05 05:11:52;;;;;;;9.93;5.03;;;6.10;1.00;;;;;;6281798;28;20312;-56
2022/04/05 05:15:02;;;;;;;13.97;4.83;;;6.20;1.00;;;;;;6288250;28;20320;-55
2022/04/05 05:18:05;;;;;;;15.10;5.53;;;5.90;1.00;;;;;;6291941;28;20233;-55
2022/04/05 05:21:08;;;;;;;6.13;4.70;;;6.00;1.00;;;;;;6287939;28;20656;-58
2022/04/05 05:24:10;;;;;;;3.97;3.67;;;6.10;1.00;;;;;;6284169;28;20489;-57
2022/04/05 05:27:15;;;;;;;7.70;5.10;;;6.00;1.00;;;;;;6289604;28;20245;-55
2022/04/05 05:30:19;;;;;;;8.23;4.57;;;6.00;1.00;;;;;;6290356;28;20370;-55
2022/04/05 05:33:21;;;;;;;8.93;4.07;;;6.20;1.00;;;;;;6289047;28;20319;-56
2022/04/05 05:36:25;;;;;;;11.60;4.27;;;6.00;1.00;;;;;;6284583;28;20256;-55
2022/04/05 05:39:28;;;;;;;8.83;4.20;;;6.20;1.00;;;;;;6291168;28;20241;-56
2022/04/05 05:42:31;;;;;;;8.57;4.20;;;6.00;1.00;;;;;;6283421;28;20318;-56
2022/04/05 05:45:36;;;;;;;12.60;4.53;;;6.40;1.00;;;;;;6288595;28;20236;-57
2022/04/05 05:48:39;;;;;;;7.27;4.60;;;6.10;1.00;;;;;;6257295;28;20226;-55
2022/04/05 05:51:42;;;;;;;9.20;4.90;;;6.00;1.00;;;;;;6262959;28;20226;-55
2022/04/05 05:54:45;;;;;;;6.70;4.37;;;6.10;1.00;;;;;;6260833;28;20241;-55
2022/04/05 05:57:47;;;;;;;6.90;4.40;;;6.20;1.00;;;;;;6255385;28;20226;-56
2022/04/05 06:00:52;;;;;;;5.47;4.17;;;6.20;1.00;;;;;;6258734;28;20226;-55
2022/04/05 06:03:54;;;;;;;6.80;3.90;;;6.20;1.00;;;;;;6259617;28;20248;-56
2022/04/05 06:06:57;;;;;;;6.40;4.10;;;6.30;1.00;;;;;;6266381;28;20245;-54
2022/04/05 06:10:00;;;;;;;4.97;4.50;;;6.30;1.00;;;;;;6260781;28;20234;-56
2022/04/05 06:13:03;;;;;;;14.07;4.53;;;6.30;1.00;;;;;;6258781;28;20451;-56
2022/04/05 06:16:08;;;;;;;6.83;4.00;;;6.40;1.00;;;;;;6266913;28;20844;-55
2022/04/05 06:19:10;;;;;;;6.10;3.87;;;6.50;1.00;;;;;;6262313;28;20730;-56
2022/04/05 06:22:13;;;;;;;7.63;3.93;;;6.40;1.00;;;;;;6266758;28;20873;-55
2022/04/05 06:25:17;;;;;;;11.23;4.40;;;6.40;1.00;;;;;;6276418;28;20813;-57
2022/04/05 06:28:20;;;;;;;10.77;4.83;;;6.80;1.00;;;;;;6250694;28;20622;-57
2022/04/05 06:31:24;;;;;;;11.50;4.67;;;6.50;1.00;;;;;;6255864;28;20684;-55
2022/04/05 06:34:27;;;;;;;13.53;4.60;;;6.70;1.00;;;;;;6256739;28;20252;-56
2022/04/05 06:37:30;;;;;;;7.70;4.53;;;6.80;1.00;;;;;;6256940;28;20313;-56
2022/04/05 06:40:33;;;;;;;11.97;4.10;;;6.70;1.00;;;;;;6247505;28;20795;-58
2022/04/05 06:43:36;;;;;;;7.03;4.17;;;6.70;1.00;;;;;;6255758;28;20494;-55
2022/04/05 06:46:40;;;;;;;6.60;4.63;;;6.70;1.00;;;;;;6263672;28;20592;-63
2022/04/05 06:49:42;;;;;;;9.00;4.63;;;6.80;1.00;;;;;;6253390;28;20304;-55
2022/04/05 06:52:45;;;;;;;10.47;4.33;;;6.90;1.00;;;;;;6264354;28;20530;-56
2022/04/05 06:55:48;;;;;;;7.63;4.00;;;6.80;1.00;;;;;;6260782;28;20850;-55
2022/04/05 06:58:50;;;;;;;6.30;4.10;;;6.90;1.00;;;;;;6257041;28;20241;-55
2022/04/05 07:01:54;;;;;;;6.63;4.33;;;6.70;1.00;;;;;;6253327;28;20782;-58
2022/04/05 07:04:57;;;;;;;8.23;4.00;;;6.80;1.00;;;;;;6261893;28;20237;-55
2022/04/05 07:08:00;;;;;;;8.33;3.70;;;6.80;1.00;;;;;;6285087;28;20266;-57
2022/04/05 07:11:03;;;;;;;4.77;3.57;;;6.80;1.00;;;;;;6265036;28;20254;-55
2022/04/05 07:14:05;;;;;;;5.67;3.50;;;6.80;1.00;;;;;;6289566;28;20853;-56
2022/04/05 07:17:10;;;;;;;7.77;3.57;;;6.90;1.00;;;;;;6263977;28;20257;-57
2022/04/05 07:20:13;;;;;;;5.13;3.50;;;7.00;1.00;;;;;;6268507;28;20330;-57
2022/04/05 07:23:16;;;;;;;8.67;3.73;;;7.30;1.00;;;;;;6251611;28;20268;-56
2022/04/05 07:26:21;;;;;;;6.67;3.80;;;7.30;1.00;;;;;;6262483;28;20623;-56
2022/04/05 07:29:23;;;;;;;7.10;3.33;;;7.50;1.00;;;;;;6272610;28;20260;-55
2022/04/05 07:32:27;;;;;;;4.87;3.50;;;7.40;1.00;;;;;;6267885;28;20292;-56
2022/04/05 07:35:30;;;;;;;10.60;3.43;;;7.40;1.00;;;;;;6261283;28;20245;-56
2022/04/05 07:38:33;;;;;;;4.23;3.60;;;7.30;1.00;;;;;;6260352;28;20226;-56
2022/04/05 07:41:36;;;;;;;3.97;3.70;;;7.30;1.00;;;;;;6265688;28;20449;-57
2022/04/05 07:44:39;;;;;;;5.33;3.67;;;7.40;1.00;;;;;;6260482;28;20309;-57
2022/04/05 07:47:44;;;;;;;7.03;3.47;;;7.60;1.00;;;;;;6264761;28;20254;-56
2022/04/05 07:50:48;;;;;;;4.80;3.60;;;7.60;1.00;;;;;;6268942;28;20383;-56
2022/04/05 07:53:50;;;;;;;5.43;3.67;;;7.40;1.00;;;;;;6262180;28;20313;-56
2022/04/05 07:56:53;;;;;;;5.37;3.80;;;7.50;1.00;;;;;;6263373;28;20447;-56
2022/04/05 07:59:58;;;;;;;4.20;3.90;;;7.60;1.00;;;;;;6261227;28;20240;-57
2022/04/05 08:03:02;;;;;;;6.40;4.30;;;7.70;1.00;;;;;;6274889;28;20838;-60
2022/04/05 08:06:05;;;;;;;6.10;3.33;;;7.70;1.00;;;;;;6264232;28;20238;-55
2022/04/05 08:09:10;;;;;;;5.30;3.23;;;7.90;1.00;;;;;;6276209;28;20671;-55
2022/04/05 08:12:13;;;;;;;5.00;3.20;;;7.90;1.00;;;;;;6272237;28;20236;-55
2022/04/05 08:15:18;;;;;;;4.80;3.07;;;7.90;1.00;;;;;;6255722;28;20313;-55
2022/04/05 08:18:22;;;;;;;7.50;3.23;;;8.00;1.00;;;;;;6285773;28;20285;-56
2022/04/05 08:21:25;;;;;;;4.80;3.00;;;8.10;1.00;;;;;;6283956;28;20786;-58
2022/04/05 08:24:27;;;;;;;5.17;3.47;;;8.00;1.00;;;;;;6260176;28;20364;-55
2022/04/05 08:27:30;;;;;;;4.00;3.17;;;8.00;1.00;;;;;;6257904;28;20323;-56
2022/04/05 08:30:33;;;;;;;3.83;3.33;;;8.10;1.00;;;;;;6258579;28;20248;-56
2022/04/05 08:33:38;;;;;;;4.80;2.80;;;8.20;1.00;;;;;;6264815;28;20395;-57
2022/04/05 08:36:40;;;;;;;9.23;3.07;;;8.30;1.00;;;;;;6263424;28;20312;-57
2022/04/05 08:39:43;;;;;;;3.50;3.17;;;8.30;1.00;;;;;;6271295;28;20521;-55
2022/04/05 08:42:49;;;;;;;3.53;3.17;;;8.20;1.00;;;;;;6263795;28;20256;-56
2022/04/05 08:45:59;;;;;;;5.50;2.90;;;8.30;1.00;;;;;;6259279;28;20258;-55
2022/04/05 08:49:04;;;;;;;3.60;3.23;;;8.40;1.00;;;;;;6262013;28;20249;-58
2022/04/05 08:52:07;;;;;;;3.57;3.27;;;8.50;1.00;;;;;;6266000;28;20786;-57
2022/04/05 08:55:10;;;;;;;3.77;2.93;;;8.60;1.00;;;;;;6260754;28;20237;-57
2022/04/05 08:58:13;;;;;;;3.93;3.30;;;8.80;1.00;;;;;;6262484;28;20279;-56
2022/04/05 09:01:16;;;;;;;3.73;3.07;;;8.90;1.00;;;;;;6272394;28;20816;-56
2022/04/05 09:04:20;;;;;;;3.40;3.10;;;8.90;1.00;;;;;;6264875;28;20324;-56
2022/04/05 09:07:24;;;;;;;4.10;2.83;;;8.90;1.00;;;;;;6262396;28;20327;-55
2022/04/05 09:10:27;;;;;;;3.30;3.10;;;8.80;1.00;;;;;;6259057;28;20293;-56
2022/04/05 09:13:30;;;;;;;3.80;3.07;;;8.80;1.00;;;;;;6261068;28;20774;-54
2022/04/05 09:16:34;;;;;;;5.90;3.43;;;9.00;1.00;;;;;;6258883;28;20242;-55
2022/04/05 09:19:42;;;;;;;6.53;3.13;;;8.90;1.00;;;;;;6258576;28;20226;-56
2022/04/05 09:22:44;;;;;;;3.77;3.27;;;9.10;1.00;;;;;;6257585;28;20335;-56
2022/04/05 09:25:54;;;;;;;5.00;3.20;;;9.20;1.00;;;;;;6257136;28;20242;-56
2022/04/05 09:29:07;;;;;;;4.47;3.00;;;9.30;1.00;;;;;;6262757;28;20297;-59
2022/04/05 09:32:11;;;;;;;5.63;3.33;;;9.20;1.00;;;;;;6260027;28;20317;-56
2022/04/05 09:35:18;;;;;;;3.30;3.10;;;9.20;1.00;;;;;;6267536;28;20516;-55
2022/04/05 09:38:21;;;;;;;3.93;3.50;;;9.30;1.00;;;;;;6255271;28;20321;-56
2022/04/05 09:41:24;;;;;;;3.30;3.10;;;9.40;1.00;;;;;;6269929;28;20647;-56
2022/04/05 09:44:28;;;;;;;3.20;3.00;;;9.60;1.00;;;;;;6257808;28;20638;-56
2022/04/05 09:47:32;;;;;;;5.20;3.20;;;9.70;1.00;;;;;;6256383;28;20238;-57
2022/04/05 09:50:57;;;;;;;5.07;2.97;;;9.60;1.00;;;;;;6258225;28;20246;-57
2022/04/05 09:54:00;;;;;;;3.03;2.83;;;9.20;1.00;;;;;;6263388;28;20234;-57
2022/04/05 09:57:06;;;;;;;3.60;2.83;;;9.00;1.00;;;;;;6255957;28;20237;-56
2022/04/05 10:00:11;;;;;;;4.47;2.90;;;8.80;1.00;;;;;;6253326;28;20236;-56
2022/04/05 10:03:19;;;;;;;3.27;3.10;;;8.60;1.00;;;;;;6261485;28;20479;-56
2022/04/05 10:06:25;;;;;;;3.97;3.13;;;8.60;1.00;;;;;;6256336;28;20345;-57
2022/04/05 10:09:28;;;;;;;6.53;3.60;;;8.60;1.00;;;;;;6261816;28;20340;-57
2022/04/05 10:12:31;;;;;;;4.43;3.03;;;8.70;1.00;;;;;;6260462;28;20333;-56
2022/04/05 10:15:35;;;;;;;8.17;3.50;;;8.80;1.00;;;;;;6267331;28;20279;-56
2022/04/05 10:18:38;;;;;;;4.20;3.20;;;8.80;1.00;;;;;;6255478;28;21148;-56
2022/04/05 10:21:43;;;;;;;10.00;3.87;;;8.90;1.00;;;;;;6249394;28;20380;-57
2022/04/05 10:24:49;;;;;;;3.63;3.33;;;8.90;1.00;;;;;;6265057;28;20315;-56
2022/04/05 10:27:53;;;;;;;7.17;3.60;;;8.80;1.00;;;;;;6267602;28;20582;-55
2022/04/05 10:31:03;;;;;;;5.43;3.27;;;8.80;1.00;;;;;;6254631;28;20412;-56
2022/04/05 10:34:14;;;;;;;23.97;3.97;;;8.90;1.00;;;;;;6255845;28;20245;-57
2022/04/05 10:37:20;;;;;;;3.57;3.30;;;8.80;1.00;;;;;;6256074;28;20246;-57
2022/04/05 10:40:23;;;;;;;4.23;3.40;;;9.00;1.00;;;;;;6264534;28;20723;-56
2022/04/05 10:43:25;;;;;;;7.57;3.20;;;9.20;1.00;;;;;;6259975;28;20368;-57
2022/04/05 10:46:42;;;;;;;3.17;2.60;;;9.50;1.00;;;;;;6257489;28;20425;-56
2022/04/05 10:50:17;;;;;;;4.67;2.40;;;9.70;1.00;;;;;;6270185;28;20238;-57
2022/04/05 10:53:23;;;;;;;9.07;3.90;;;9.50;1.00;;;;;;6258068;28;20388;-57
2022/04/05 10:56:26;;;;;;;3.77;2.80;;;9.30;1.00;;;;;;6257441;28;20638;-56
2022/04/05 10:59:47;;;;;;;2.80;2.70;;;9.30;1.00;;;;;;6273995;28;20243;-60
2022/04/05 11:03:04;;;;;;;7.57;3.00;;;9.40;1.00;;;;;;6263066;28;20325;-56
2022/04/05 11:06:08;;;;;;;3.27;3.00;;;9.50;1.00;;;;;;6262882;28;20249;-57
2022/04/05 11:09:26;;;;;;;3.20;3.00;;;9.50;1.00;;;;;;6279088;28;20233;-56
2022/04/05 11:12:31;;;;;;;6.13;3.10;;;9.70;1.00;;;;;;6261850;28;20633;-56
2022/04/05 11:15:40;;;;;;;3.40;3.10;;;9.70;1.00;;;;;;6268230;28;20286;-57
2022/04/05 11:18:45;;;;;;;3.13;2.60;;;9.60;1.00;;;;;;6268595;28;20226;-57
2022/04/05 11:21:56;;;;;;;3.27;3.10;;;9.50;1.00;;;;;;6260037;28;20285;-56
2022/04/05 11:25:04;;;;;;;2.77;2.57;;;9.50;1.00;;;;;;6282265;28;20237;-56
2022/04/05 11:28:12;;;;;;;3.37;2.90;;;9.70;1.00;;;;;;6267815;28;20246;-57
2022/04/05 11:31:28;;;;;;;2.90;2.70;;;9.80;1.00;;;;;;6267143;28;20273;-56
2022/04/05 11:34:39;;;;;;;3.83;2.97;;;9.90;1.00;;;;;;6272066;28;20787;-56
2022/04/05 11:37:43;;;;;;;3.13;2.87;;;10.00;1.00;;;;;;6274754;28;20231;-58
2022/04/05 11:40:48;;;;;;;4.97;2.70;;;10.00;1.00;;;;;;6255762;28;20633;-56
2022/04/05 11:43:52;;;;;;;4.07;2.93;;;9.90;1.00;;;;;;6259225;28;20250;-57
2022/04/05 11:46:58;;;;;;;5.07;3.30;;;9.80;1.00;;;;;;6268080;28;20377;-56
2022/04/05 11:50:08;;;;;;;3.23;3.07;;;9.80;1.00;;;;;;6261290;28;20241;-57
2022/04/05 11:53:20;;;;;;;3.00;2.73;;;9.80;1.00;;;;;;6261613;28;20849;-57
2022/04/05 11:56:27;;;;;;;3.17;2.90;;;9.80;1.00;;;;;;6280825;28;20237;-56
2022/04/05 11:59:30;;;;;;;4.43;2.90;;;9.80;1.00;;;;;;6284852;28;20691;-57
2022/04/05 12:02:33;;;;;;;3.83;2.83;;;9.90;1.00;;;;;;6269619;28;20772;-56
2022/04/05 12:05:43;;;;;;;3.57;2.97;;;10.10;1.00;;;;;;6288718;28;20247;-56
2022/04/05 12:08:47;;;;;;;3.33;3.00;;;10.10;1.00;;;;;;6284669;28;20753;-56
2022/04/05 12:11:53;;;;;;;2.90;2.70;;;10.10;1.00;;;;;;6284149;28;20935;-58
2022/04/05 12:14:56;;;;;;;2.90;2.70;;;10.00;1.00;;;;;;6283970;28;20245;-58
2022/04/05 12:18:17;;;;;;;3.63;3.30;;;10.00;1.00;;;;;;6268851;28;20476;-57
2022/04/05 12:21:21;;;;;;;3.30;3.00;;;9.80;1.00;;;;;;6254490;28;20272;-57
2022/04/05 12:24:25;;;;;;;4.60;2.90;;;9.60;1.00;;;;;;6263495;28;20234;-57
2022/04/05 12:27:32;;;;;;;4.93;3.10;;;9.60;1.00;;;;;;6259847;28;20512;-56
2022/04/05 12:30:34;;;;;;;5.47;3.80;;;9.50;1.00;;;;;;6252776;28;20280;-57
2022/04/05 12:33:39;;;;;;;5.20;3.20;;;9.40;1.00;;;;;;6259756;28;20323;-57
2022/04/05 12:36:43;;;;;;;3.40;3.03;;;9.40;1.00;;;;;;6260972;28;20253;-56
2022/04/05 12:39:48;;;;;;;3.70;3.30;;;9.50;1.00;;;;;;6263197;28;20330;-56
2022/04/05 12:42:52;;;;;;;3.00;2.87;;;9.60;1.00;;;;;;6266773;28;20726;-57
2022/04/05 12:45:54;;;;;;;3.23;2.87;;;9.70;1.00;;;;;;6263142;28;20350;-57
2022/04/05 12:49:14;;;;;;;3.73;3.17;;;9.80;1.00;;;;;;6258897;28;20233;-57
2022/04/05 12:52:37;;;;;;;2.73;2.53;;;9.90;1.00;;;;;;6254025;28;20624;-58
2022/04/05 12:55:40;;;;;;;3.33;3.10;;;9.90;1.00;;;;;;6259693;28;20341;-56
2022/04/05 12:58:48;;;;;;;3.33;3.13;;;9.80;1.00;;;;;;6261466;28;20313;-57
2022/04/05 13:01:54;;;;;;;4.20;3.00;;;9.80;1.00;;;;;;6261718;28;20320;-59
2022/04/05 13:08:30;;;;;;;3.63;3.10;;;10.00;1.00;;;;;;6255610;28;20238;-55
2022/04/05 13:11:33;;;;;;;5.83;3.20;;;10.20;1.00;;;;;;6264425;28;20241;-57
2022/04/05 13:14:38;;;;;;;3.70;3.40;;;10.30;1.00;;;;;;6256414;28;20617;-57
2022/04/05 13:17:41;;;;;;;3.10;2.80;;;10.30;1.00;;;;;;6257452;28;20961;-57
2022/04/05 13:20:58;;;;;;;4.07;3.07;;;10.30;1.00;;;;;;6262308;28;20496;-57
2022/04/05 13:24:02;;;;;;;5.00;3.13;;;10.30;1.00;;;;;;6264239;28;20293;-57
2022/04/05 13:27:05;;;;;;;6.17;3.07;;;10.30;1.00;;;;;;6271161;28;20347;-56
2022/04/05 13:30:11;;;;;;;4.87;2.93;;;10.10;1.00;;;;;;6263385;28;20417;-56
2022/04/05 13:33:14;;;;;;;3.20;2.90;;;10.00;1.00;;;;;;6251715;28;20237;-57
2022/04/05 13:36:17;;;;;;;4.70;3.37;;;9.90;1.00;;;;;;6258918;28;20285;-58
2022/04/05 13:39:20;;;;;;;4.37;3.10;;;9.80;1.00;;;;;;6264624;28;20268;-57
2022/04/05 13:42:23;;;;;;;5.00;3.17;;;9.70;1.00;;;;;;6263837;28;20728;-56
2022/04/05 13:45:27;;;;;;;4.80;3.07;;;9.70;1.00;;;;;;6255168;28;20242;-57
2022/04/05 13:48:31;;;;;;;4.33;3.30;;;9.70;1.00;;;;;;6255813;28;20237;-56
2022/04/05 13:51:34;;;;;;;3.33;2.90;;;9.80;1.00;;;;;;6255761;28;20333;-55
2022/04/05 13:54:47;;;;;;;3.90;3.23;;;9.90;1.00;;;;;;6258114;28;20744;-57
2022/04/05 13:57:51;;;;;;;3.83;3.17;;;9.80;1.00;;;;;;6257971;28;20291;-56
2022/04/05 14:00:55;;;;;;;3.70;3.37;;;9.80;1.00;;;;;;6255559;28;20699;-57
2022/04/05 14:03:58;;;;;;;3.83;3.17;;;9.80;1.00;;;;;;6260130;28;20237;-57
2022/04/05 14:07:00;;;;;;;5.40;3.20;;;9.60;1.00;;;;;;6256504;28;20238;-57
2022/04/05 14:10:03;;;;;;;3.77;3.47;;;9.60;1.00;;;;;;6252287;28;20312;-56
2022/04/05 14:13:06;;;;;;;3.43;3.23;;;9.50;1.00;;;;;;6270833;28;20245;-56
2022/04/05 14:16:11;;;;;;;6.73;3.67;;;9.50;1.00;;;;;;6265963;28;20233;-56
2022/04/05 14:19:14;;;;;;;4.00;3.40;;;9.40;1.00;;;;;;6264046;28;20261;-58
2022/04/05 14:22:17;;;;;;;3.53;3.30;;;9.50;1.00;;;;;;6265825;28;20233;-58
2022/04/05 14:25:20;;;;;;;3.93;3.00;;;9.30;1.00;;;;;;6271518;28;20504;-56
2022/04/05 14:28:23;;;;;;;4.70;3.33;;;9.20;1.00;;;;;;6266581;28;20291;-57
2022/04/05 14:31:28;;;;;;;5.40;3.20;;;9.30;1.00;;;;;;6263556;28;20249;-56
2022/04/05 14:34:30;;;;;;;7.43;3.90;;;9.20;1.00;;;;;;6273892;28;20285;-56
2022/04/05 14:37:33;;;;;;;4.83;3.53;;;9.10;1.00;;;;;;6270497;28;20269;-57
2022/04/05 14:40:36;;;;;;;6.93;3.47;;;9.10;1.00;;;;;;6272421;28;20326;-56
2022/04/05 14:43:40;;;;;;;3.93;3.50;;;9.10;1.00;;;;;;6266908;28;20636;-58
2022/04/05 14:46:44;;;;;;;5.40;3.77;;;9.10;1.00;;;;;;6274067;28;20355;-58
2022/04/05 14:49:51;;;;;;;3.73;3.40;;;9.10;1.00;;;;;;6256329;28;20629;-56
2022/04/05 14:52:54;;;;;;;4.00;3.60;;;9.00;1.00;;;;;;6262225;28;20242;-58
2022/04/05 14:55:57;;;;;;;3.67;3.47;;;8.90;1.00;;;;;;6266474;28;20325;-55
2022/04/05 14:59:00;;;;;;;4.07;3.80;;;8.90;1.00;;;;;;6260965;28;20339;-56
2022/04/05 15:02:04;;;;;;;4.33;3.80;;;8.90;1.00;;;;;;6265674;28;20240;-58
2022/04/05 15:05:08;;;;;;;3.80;3.60;;;8.90;1.00;;;;;;6268668;28;20236;-58
2022/04/05 15:08:11;;;;;;;4.27;3.57;;;8.90;1.00;;;;;;6256216;28;21027;-56
2022/04/05 15:11:13;;;;;;;5.50;4.40;;;8.80;1.00;;;;;;6267320;28;20248;-58
2022/04/05 15:14:16;;;;;;;4.00;3.70;;;8.80;1.00;;;;;;6258640;28;20225;-57
2022/04/05 15:17:20;;;;;;;3.80;3.60;;;8.90;1.00;;;;;;6266952;28;20706;-59
2022/04/05 15:20:23;;;;;;;4.23;3.80;;;8.90;1.00;;;;;;6273532;28;20325;-57
2022/04/05 15:23:27;;;;;;;4.23;3.97;;;8.90;1.00;;;;;;6259720;28;20301;-58
2022/04/05 15:26:30;;;;;;;5.63;3.80;;;9.10;1.00;;;;;;6260174;28;20375;-57
2022/04/05 15:29:36;;;;;;;7.27;4.37;;;9.10;1.00;;;;;;6279938;28;20420;-57
2022/04/05 15:32:41;;;;;;;4.40;4.00;;;9.10;1.00;;;;;;6275963;28;20238;-57
2022/04/05 15:35:44;;;;;;;4.20;3.90;;;9.10;1.00;;;;;;6269245;28;20548;-57
2022/04/05 15:38:46;;;;;;;5.50;4.53;;;9.10;1.00;;;;;;6262006;28;20568;-56
2022/04/05 15:41:50;;;;;;;5.97;4.37;;;9.10;1.00;;;;;;6258644;28;20229;-56
2022/04/05 15:44:53;;;;;;;4.77;4.30;;;9.00;1.00;;;;;;6251917;28;20273;-57
2022/04/05 15:47:57;;;;;;;5.37;4.80;;;9.10;1.00;;;;;;6256625;28;20387;-57
2022/04/05 15:51:00;;;;;;;4.80;4.50;;;9.10;1.00;;;;;;6259575;28;20241;-57
2022/04/05 15:54:03;;;;;;;5.63;4.63;;;9.10;1.00;;;;;;6261934;28;20790;-56
2022/04/05 15:57:06;;;;;;;5.00;4.70;;;9.10;1.00;;;;;;6263466;28;20248;-57
2022/04/05 16:00:10;;;;;;;5.23;4.73;;;9.10;1.00;;;;;;6263636;28;20323;-55
2022/04/05 16:03:14;;;;;;;8.00;5.23;;;9.10;1.00;;;;;;6263173;28;20261;-56
2022/04/05 16:06:18;;;;;;;6.17;5.50;;;9.10;1.00;;;;;;6260475;28;20337;-57
2022/04/05 16:09:20;;;;;;;5.57;5.00;;;9.00;1.00;;;;;;6262728;28;20579;-56
2022/04/05 16:12:23;;;;;;;6.57;5.17;;;9.00;1.00;;;;;;6258483;28;20665;-58
2022/04/05 16:15:26;;;;;;;5.87;5.20;;;8.90;1.00;;;;;;6260721;28;20241;-57
2022/04/05 16:18:30;;;;;;;5.97;5.47;;;8.90;1.00;;;;;;6259414;28;20246;-57
2022/04/05 16:21:34;;;;;;;5.73;5.30;;;8.90;1.00;;;;;;6268115;28;20821;-57
2022/04/05 16:24:37;;;;;;;7.30;6.67;;;8.80;1.00;;;;;;6261195;28;20320;-57
2022/04/05 16:27:40;;;;;;;6.73;6.13;;;8.80;1.00;;;;;;6262319;28;20719;-58
2022/04/05 16:30:43;;;;;;;7.20;6.47;;;8.70;1.00;;;;;;6260464;28;20237;-56